createdAt,value
2019-05-23T00:01:21.246Z,11.50
2019-05-23T00:03:56.858Z,11.50
2019-05-23T00:06:28.147Z,11.50
2019-05-23T00:08:58.948Z,11.50
2019-05-23T00:11:40.614Z,11.50
2019-05-23T00:14:43.688Z,11.50
2019-05-23T00:17:18.858Z,11.50
2019-05-23T00:19:50.144Z,11.50
2019-05-23T00:22:20.475Z,11.40
2019-05-23T00:24:53.888Z,11.40
2019-05-23T00:27:24.784Z,11.40
2019-05-23T00:29:54.886Z,11.30
2019-05-23T00:32:30.848Z,11.40
2019-05-23T00:35:02.638Z,11.30
2019-05-23T00:37:34.105Z,11.30
2019-05-23T00:40:05.873Z,11.30
2019-05-23T00:42:35.906Z,11.30
2019-05-23T00:45:07.614Z,11.30
2019-05-23T00:47:37.628Z,11.20
2019-05-23T00:50:08.625Z,11.20
2019-05-23T00:52:38.992Z,11.20
2019-05-23T00:55:15.549Z,11.20
2019-05-23T00:57:47.027Z,11.20
2019-05-23T01:00:21.255Z,11.20
2019-05-23T01:02:51.446Z,11.20
2019-05-23T01:05:23.190Z,11.20
2019-05-23T01:07:54.129Z,11.20
2019-05-23T01:10:25.700Z,11.20
2019-05-23T01:12:56.396Z,11.10
2019-05-23T01:15:27.781Z,11.10
2019-05-23T01:17:57.619Z,11.10
2019-05-23T01:20:39.579Z,11.10
2019-05-23T01:23:09.560Z,11.10
2019-05-23T01:25:40.371Z,11.10
2019-05-23T01:28:10.698Z,11.10
2019-05-23T01:30:43.644Z,11.10
2019-05-23T01:33:14.065Z,11.10
2019-05-23T01:35:45.128Z,11.00
2019-05-23T01:38:16.579Z,11.00
2019-05-23T01:40:47.919Z,11.00
2019-05-23T01:43:21.297Z,11.00
2019-05-23T01:45:51.369Z,11.00
2019-05-23T01:48:22.016Z,11.00
2019-05-23T01:50:52.310Z,11.00
2019-05-23T01:53:22.361Z,11.00
2019-05-23T01:55:53.262Z,11.00
2019-05-23T01:58:26.451Z,11.00
2019-05-23T02:00:57.083Z,11.00
2019-05-23T02:03:26.897Z,10.90
2019-05-23T02:05:57.794Z,11.00
2019-05-23T02:08:30.818Z,10.90
2019-05-23T02:11:01.994Z,10.90
2019-05-23T02:13:32.666Z,10.90
2019-05-23T02:16:03.467Z,10.90
2019-05-23T02:18:33.420Z,10.90
2019-05-23T02:21:05.678Z,10.90
2019-05-23T02:23:35.729Z,10.90
2019-05-23T02:26:07.387Z,10.90
2019-05-23T02:28:37.511Z,10.90
2019-05-23T02:31:12.357Z,10.90
2019-05-23T02:33:43.594Z,10.80
2019-05-23T02:36:15.411Z,10.80
2019-05-23T02:39:18.410Z,10.80
2019-05-23T02:42:15.991Z,10.80
2019-05-23T02:44:47.974Z,10.80
2019-05-23T02:47:40.225Z,10.80
2019-05-23T02:50:15.806Z,10.80
2019-05-23T02:52:50.331Z,10.70
2019-05-23T02:55:32.529Z,10.70
2019-05-23T02:58:14.799Z,10.70
2019-05-23T03:01:28.278Z,10.70
2019-05-23T03:04:02.215Z,10.70
2019-05-23T03:06:32.742Z,10.70
2019-05-23T03:09:04.927Z,10.70
2019-05-23T03:11:42.467Z,10.60
2019-05-23T03:14:27.237Z,10.60
2019-05-23T03:17:05.434Z,10.60
2019-05-23T03:20:13.880Z,10.60
2019-05-23T03:22:56.621Z,10.60
2019-05-23T03:26:12.882Z,10.60
2019-05-23T03:28:43.447Z,10.50
2019-05-23T03:31:29.823Z,10.50
2019-05-23T03:33:53.005Z,10.50
2019-05-23T03:36:27.260Z,10.50
2019-05-23T03:39:11.370Z,10.50
2019-05-23T03:41:41.918Z,10.50
2019-05-23T03:44:13.778Z,10.50
2019-05-23T03:47:00.256Z,10.50
2019-05-23T03:49:39.957Z,10.50
2019-05-23T03:52:11.288Z,10.50
2019-05-23T03:54:50.156Z,10.50
2019-05-23T03:57:25.729Z,10.50
2019-05-23T03:59:54.411Z,10.40
2019-05-23T04:02:26.526Z,10.50
2019-05-23T04:04:57.485Z,10.40
2019-05-23T04:07:27.364Z,10.50
2019-05-23T04:09:58.370Z,10.50
2019-05-23T04:12:37.855Z,10.40
2019-05-23T04:15:11.257Z,10.40
2019-05-23T04:17:42.942Z,10.40
2019-05-23T04:20:13.740Z,10.50
2019-05-23T04:22:47.396Z,10.50
2019-05-23T04:25:18.571Z,10.50
2019-05-23T04:27:48.449Z,10.50
2019-05-23T04:30:18.257Z,10.50
2019-05-23T04:33:05.596Z,10.50
2019-05-23T04:35:36.938Z,10.50
2019-05-23T04:38:28.192Z,10.50
2019-05-23T04:41:01.438Z,10.50
2019-05-23T04:43:31.462Z,10.50
2019-05-23T04:46:02.984Z,10.60
2019-05-23T04:48:37.825Z,10.60
2019-05-23T04:51:09.473Z,10.60
2019-05-23T04:53:52.499Z,10.70
2019-05-23T04:56:23.975Z,10.70
2019-05-23T04:58:56.489Z,10.70
2019-05-23T05:01:27.554Z,10.70
2019-05-23T05:03:57.869Z,10.70
2019-05-23T05:06:28.459Z,10.80
2019-05-23T05:08:59.065Z,10.80
2019-05-23T05:11:30.578Z,10.80
2019-05-23T05:14:01.047Z,10.90
2019-05-23T05:16:31.106Z,10.90
2019-05-23T05:19:01.503Z,10.90
2019-05-23T05:21:31.872Z,10.90
2019-05-23T05:24:02.409Z,11.00
2019-05-23T05:26:32.299Z,11.00
2019-05-23T05:29:02.641Z,11.00
2019-05-23T05:31:34.854Z,11.10
2019-05-23T05:34:04.559Z,11.10
2019-05-23T05:36:34.493Z,11.20
2019-05-23T05:39:06.469Z,11.20
2019-05-23T05:41:35.946Z,11.20
2019-05-23T05:44:11.576Z,11.30
2019-05-23T05:46:41.740Z,11.30
2019-05-23T05:49:12.300Z,11.40
2019-05-23T05:51:41.915Z,11.40
2019-05-23T05:54:11.953Z,11.50
2019-05-23T05:56:41.538Z,11.60
2019-05-23T05:59:11.337Z,11.60
2019-05-23T06:01:41.132Z,11.70
2019-05-23T06:04:11.193Z,11.70
2019-05-23T06:06:49.996Z,11.90
2019-05-23T06:09:29.388Z,12.00
2019-05-23T06:11:58.985Z,12.10
2019-05-23T06:14:29.364Z,12.30
2019-05-23T06:17:01.404Z,12.50
2019-05-23T06:19:31.186Z,12.60
2019-05-23T06:22:02.691Z,12.70
2019-05-23T06:24:44.954Z,12.80
2019-05-23T06:27:07.396Z,12.90
2019-05-23T06:29:39.053Z,12.90
2019-05-23T06:32:10.907Z,13.00
2019-05-23T06:34:41.544Z,13.10
2019-05-23T06:37:11.667Z,13.10
2019-05-23T06:39:42.636Z,13.20
2019-05-23T06:42:12.867Z,13.30
2019-05-23T06:44:42.422Z,13.40
2019-05-23T06:47:12.309Z,13.50
2019-05-23T06:49:42.141Z,13.60
2019-05-23T06:52:11.971Z,13.60
2019-05-23T06:54:41.821Z,13.60
2019-05-23T06:57:12.169Z,13.70
2019-05-23T06:59:44.860Z,13.80
2019-05-23T07:02:17.815Z,13.80
2019-05-23T07:04:47.894Z,13.90
2019-05-23T07:07:17.745Z,13.90
2019-05-23T07:09:48.316Z,14.00
2019-05-23T07:12:18.769Z,14.00
2019-05-23T07:14:48.774Z,14.10
2019-05-23T07:17:19.687Z,14.30
2019-05-23T07:19:49.418Z,14.40
2019-05-23T07:22:22.005Z,14.40
2019-05-23T07:24:58.626Z,14.50
2019-05-23T07:27:29.476Z,14.60
2019-05-23T07:29:59.518Z,14.60
2019-05-23T07:32:29.275Z,14.70
2019-05-23T07:35:10.214Z,14.70
2019-05-23T07:37:56.807Z,14.80
2019-05-23T07:40:28.022Z,14.80
2019-05-23T07:42:57.569Z,14.90
2019-05-23T07:45:34.267Z,15.00
2019-05-23T07:48:07.345Z,15.00
2019-05-23T07:50:37.393Z,15.20
2019-05-23T07:53:09.177Z,15.30
2019-05-23T07:55:42.113Z,15.30
2019-05-23T07:58:14.183Z,15.50
2019-05-23T08:00:55.521Z,15.50
2019-05-23T08:03:30.858Z,15.60
2019-05-23T08:06:01.426Z,15.60
2019-05-23T08:08:35.232Z,15.60
2019-05-23T08:11:04.963Z,15.60
2019-05-23T08:13:38.518Z,15.70
2019-05-23T08:16:09.992Z,15.70
2019-05-23T08:18:42.755Z,15.80
2019-05-23T08:21:13.274Z,15.80
2019-05-23T08:23:42.796Z,15.80
2019-05-23T08:26:13.001Z,15.90
2019-05-23T08:29:11.366Z,16.00
2019-05-23T08:31:16.450Z,16.10
2019-05-23T08:33:45.964Z,16.20
2019-05-23T08:36:16.385Z,16.20
2019-05-23T08:38:45.941Z,16.30
2019-05-23T08:41:15.268Z,16.30
2019-05-23T08:43:44.941Z,16.40
2019-05-23T08:46:21.370Z,16.50
2019-05-23T08:48:54.632Z,16.60
2019-05-23T08:51:24.276Z,16.70
2019-05-23T08:53:54.105Z,16.80
2019-05-23T08:56:30.442Z,16.80
2019-05-23T08:59:01.559Z,16.90
2019-05-23T09:01:32.502Z,17.10
2019-05-23T09:04:02.551Z,17.20
2019-05-23T09:06:33.550Z,17.50
2019-05-23T09:09:27.719Z,17.90
2019-05-23T09:11:37.922Z,18.40
2019-05-23T09:14:11.487Z,19.00
2019-05-23T09:16:43.399Z,19.50
2019-05-23T09:19:14.301Z,19.90
2019-05-23T09:21:45.923Z,20.30
2019-05-23T09:24:16.789Z,20.90
2019-05-23T09:26:48.055Z,21.20
2019-05-23T09:29:18.127Z,21.20
2019-05-23T09:31:47.588Z,21.70
2019-05-23T09:34:22.268Z,22.50
2019-05-23T09:36:51.819Z,22.90
2019-05-23T09:39:23.344Z,23.30
2019-05-23T09:41:53.226Z,23.80
2019-05-23T09:44:24.588Z,24.20
2019-05-23T09:46:53.990Z,24.20
2019-05-23T09:49:25.033Z,24.60
2019-05-23T09:52:00.925Z,25.00
2019-05-23T09:54:29.715Z,25.30
2019-05-23T09:56:59.434Z,25.90
2019-05-23T09:59:28.913Z,25.90
2019-05-23T10:02:01.310Z,26.20
2019-05-23T10:04:33.159Z,26.10
2019-05-23T10:07:03.013Z,26.40
2019-05-23T10:09:33.101Z,26.30
2019-05-23T10:12:03.044Z,26.60
2019-05-23T10:14:36.723Z,26.90
2019-05-23T10:17:07.914Z,26.70
2019-05-23T10:19:37.582Z,26.80
2019-05-23T10:22:07.219Z,26.20
2019-05-23T10:24:36.763Z,26.80
2019-05-23T10:27:09.193Z,26.80
2019-05-23T10:29:38.697Z,27.20
2019-05-23T10:32:11.440Z,27.30
2019-05-23T10:34:40.921Z,27.70
2019-05-23T10:37:12.542Z,26.50
2019-05-23T10:39:46.698Z,26.90
2019-05-23T10:42:20.283Z,27.70
2019-05-23T10:44:49.509Z,27.30
2019-05-23T10:47:20.778Z,27.60
2019-05-23T10:49:50.353Z,27.00
2019-05-23T10:52:23.621Z,27.30
2019-05-23T10:55:17.550Z,27.80
2019-05-23T10:57:50.147Z,27.40
2019-05-23T11:00:21.983Z,27.70
2019-05-23T11:02:52.801Z,27.30
2019-05-23T11:05:22.586Z,27.50
2019-05-23T11:07:52.698Z,27.20
2019-05-23T11:10:24.747Z,26.30
2019-05-23T11:12:56.648Z,25.80
2019-05-23T11:15:26.418Z,25.60
2019-05-23T11:18:03.779Z,26.00
2019-05-23T11:20:42.341Z,25.80
2019-05-23T11:23:25.669Z,25.60
2019-05-23T11:25:55.510Z,25.30
2019-05-23T11:28:25.534Z,25.70
2019-05-23T11:30:58.632Z,24.90
2019-05-23T11:33:28.742Z,24.60
2019-05-23T11:36:01.559Z,24.70
2019-05-23T11:38:34.085Z,24.60
2019-05-23T11:41:05.186Z,24.30
2019-05-23T11:43:34.821Z,23.90
2019-05-23T11:46:10.391Z,23.90
2019-05-23T11:48:40.447Z,23.80
2019-05-23T11:51:10.962Z,23.80
2019-05-23T11:53:40.688Z,23.60
2019-05-23T11:56:11.679Z,23.40
2019-05-23T11:58:41.450Z,23.00
2019-05-23T12:01:34.549Z,22.60
2019-05-23T12:04:16.744Z,22.70
2019-05-23T12:07:12.337Z,22.20
2019-05-23T12:09:42.337Z,22.20
2019-05-23T12:12:12.040Z,22.40
2019-05-23T12:14:42.513Z,22.10
2019-05-23T12:17:13.090Z,22.00
2019-05-23T12:19:42.930Z,21.70
2019-05-23T12:22:13.930Z,21.80
2019-05-23T12:24:43.959Z,21.10
2019-05-23T12:27:14.531Z,21.30
2019-05-23T12:29:45.549Z,21.40
2019-05-23T12:32:17.741Z,21.30
2019-05-23T12:35:08.065Z,21.30
2019-05-23T12:37:20.337Z,21.50
2019-05-23T12:39:49.930Z,21.40
2019-05-23T12:42:20.109Z,21.40
2019-05-23T12:44:51.064Z,21.50
2019-05-23T12:47:27.986Z,21.50
2019-05-23T12:50:10.871Z,21.40
2019-05-23T12:52:40.719Z,21.40
2019-05-23T12:55:18.772Z,21.40
2019-05-23T12:58:16.373Z,21.40
2019-05-23T13:01:09.146Z,21.50
2019-05-23T13:03:43.030Z,21.30
2019-05-23T13:06:46.735Z,21.30
2019-05-23T13:09:17.652Z,21.30
2019-05-23T13:12:03.721Z,21.20
2019-05-23T13:14:55.981Z,21.10
2019-05-23T13:17:41.037Z,21.30
2019-05-23T13:20:13.767Z,21.40
2019-05-23T13:22:53.145Z,21.30
2019-05-23T13:25:23.390Z,21.00
2019-05-23T13:27:52.790Z,20.80
2019-05-23T13:30:24.305Z,20.80
2019-05-23T13:32:55.109Z,20.50
2019-05-23T13:35:26.364Z,20.70
2019-05-23T13:37:55.919Z,21.00
2019-05-23T13:40:25.445Z,21.10
2019-05-23T13:42:55.336Z,21.00
2019-05-23T13:45:26.818Z,21.10
2019-05-23T13:47:56.736Z,21.10
2019-05-23T13:50:27.332Z,21.00
2019-05-23T13:52:57.527Z,21.00
2019-05-23T13:55:27.633Z,21.00
2019-05-23T13:58:00.339Z,21.00
2019-05-23T14:00:30.344Z,20.80
2019-05-23T14:03:04.722Z,21.00
2019-05-23T14:05:34.134Z,21.00
2019-05-23T14:08:19.516Z,20.60
2019-05-23T14:10:53.158Z,20.80
2019-05-23T14:13:23.108Z,20.90
2019-05-23T14:15:55.841Z,20.70
2019-05-23T14:18:27.866Z,20.70
2019-05-23T14:20:59.276Z,20.60
2019-05-23T14:23:33.126Z,20.50
2019-05-23T14:26:03.239Z,20.50
2019-05-23T14:28:55.740Z,20.60
2019-05-23T14:31:54.768Z,20.60
2019-05-23T14:34:36.317Z,20.60
2019-05-23T14:37:23.277Z,20.60
2019-05-23T14:40:07.526Z,20.80
2019-05-23T14:43:01.288Z,20.80
2019-05-23T14:45:40.511Z,20.80
2019-05-23T14:48:36.034Z,20.80
2019-05-23T14:51:50.593Z,20.90
2019-05-23T14:54:28.205Z,20.40
2019-05-23T14:56:57.928Z,20.50
2019-05-23T14:59:28.554Z,20.60
2019-05-23T15:01:58.488Z,20.70
2019-05-23T15:04:38.363Z,20.60
2019-05-23T15:07:09.256Z,20.70
2019-05-23T15:09:38.554Z,20.60
2019-05-23T15:12:21.605Z,20.60
2019-05-23T15:14:51.335Z,20.50
2019-05-23T15:17:22.735Z,20.60
2019-05-23T15:20:15.700Z,20.60
2019-05-23T15:22:45.235Z,20.70
2019-05-23T15:25:20.565Z,20.70
2019-05-23T15:27:51.819Z,20.70
2019-05-23T15:30:24.985Z,20.60
2019-05-23T15:32:54.622Z,20.50
2019-05-23T15:35:25.918Z,20.50
2019-05-23T15:37:57.231Z,20.60
2019-05-23T15:40:34.210Z,20.70
2019-05-23T15:43:03.907Z,20.70
2019-05-23T15:45:33.880Z,20.60
2019-05-23T15:48:05.808Z,20.70
2019-05-23T15:50:41.972Z,20.70
2019-05-23T15:53:30.553Z,20.60
2019-05-23T15:56:27.689Z,20.60
2019-05-23T15:58:55.547Z,20.50
2019-05-23T16:01:42.753Z,20.50
2019-05-23T16:04:14.843Z,20.60
2019-05-23T16:06:45.440Z,20.50
2019-05-23T16:09:28.619Z,20.50
2019-05-23T16:11:51.147Z,20.30
2019-05-23T16:14:25.400Z,20.50
2019-05-23T16:16:57.371Z,20.50
2019-05-23T16:19:27.007Z,20.40
2019-05-23T16:21:56.691Z,20.40
2019-05-23T16:24:38.090Z,20.40
2019-05-23T16:27:17.786Z,20.30
2019-05-23T16:29:47.838Z,20.30
2019-05-23T16:32:19.556Z,20.30
2019-05-23T16:34:49.681Z,20.30
2019-05-23T16:37:20.140Z,20.10
2019-05-23T16:39:52.055Z,20.20
2019-05-23T16:42:24.091Z,20.10
2019-05-23T16:44:54.857Z,20.20
2019-05-23T16:47:25.738Z,20.20
2019-05-23T16:49:56.225Z,20.20
2019-05-23T16:52:26.174Z,20.10
2019-05-23T16:54:58.033Z,20.10
2019-05-23T16:57:39.143Z,20.10
2019-05-23T17:00:26.717Z,20.10
2019-05-23T17:03:24.256Z,20.00
2019-05-23T17:06:03.530Z,20.00
2019-05-23T17:08:49.380Z,19.90
2019-05-23T17:11:34.826Z,19.90
2019-05-23T17:14:16.220Z,20.00
2019-05-23T17:17:05.124Z,20.00
2019-05-23T17:19:39.572Z,19.90
2019-05-23T17:22:37.557Z,19.80
2019-05-23T17:25:21.226Z,19.80
2019-05-23T17:28:16.804Z,19.60
2019-05-23T17:31:12.133Z,19.70
2019-05-23T17:33:42.518Z,19.60
2019-05-23T17:36:21.134Z,19.60
2019-05-23T17:39:29.433Z,19.60
2019-05-23T17:42:00.661Z,19.60
2019-05-23T17:44:30.226Z,19.60
2019-05-23T17:47:02.636Z,19.60
2019-05-23T17:49:32.324Z,19.50
2019-05-23T17:52:01.999Z,19.40
2019-05-23T17:54:32.605Z,19.40
2019-05-23T17:57:03.248Z,19.40
2019-05-23T17:59:46.626Z,19.50
2019-05-23T18:02:44.599Z,19.40
2019-05-23T18:20:47.338Z,19.20
2019-05-23T18:23:21.929Z,19.10
2019-05-23T18:28:58.154Z,19.00
2019-05-23T18:31:33.574Z,19.00
2019-05-23T18:34:04.179Z,19.00
2019-05-23T18:36:35.239Z,19.00
2019-05-23T18:39:29.352Z,18.90
2019-05-23T18:45:18.585Z,18.70
2019-05-23T18:48:06.550Z,18.70
2019-05-23T18:57:21.655Z,18.50
2019-05-23T18:59:51.910Z,18.40
2019-05-23T22:32:45.978Z,15.00
2019-05-23T22:35:36.876Z,15.00
